sensor_id;sensor_type;location;lat;lon;timestamp;P1;durP1;ratioP1;P2;durP2;ratioP2
6143;SDS011;3103;49.492;8.474;2022-10-16T00:01:32;14.97;;;7.70;;
6143;SDS011;3103;49.492;8.474;2022-10-16T00:03:59;7.57;;;4.30;;
6143;SDS011;3103;49.492;8.474;2022-10-16T00:06:29;4.97;;;3.37;;
6143;SDS011;3103;49.492;8.474;2022-10-16T00:08:56;10.70;;;6.70;;
6143;SDS011;3103;49.492;8.474;2022-10-16T00:11:25;11.70;;;6.70;;
6143;SDS011;3103;49.492;8.474;2022-10-16T00:13:58;8.27;;;4.30;;
6143;SDS011;3103;49.492;8.474;2022-10-16T00:16:27;18.07;;;11.53;;
6143;SDS011;3103;49.492;8.474;2022-10-16T00:18:55;9.87;;;6.73;;
6143;SDS011;3103;49.492;8.474;2022-10-16T00:21:23;7.03;;;5.50;;
6143;SDS011;3103;49.492;8.474;2022-10-16T00:24:09;7.80;;;3.50;;
6143;SDS011;3103;49.492;8.474;2022-10-16T00:26:37;8.10;;;4.40;;
6143;SDS011;3103;49.492;8.474;2022-10-16T00:29:05;5.47;;;4.13;;
6143;SDS011;3103;49.492;8.474;2022-10-16T00:31:32;16.13;;;11.60;;
6143;SDS011;3103;49.492;8.474;2022-10-16T00:33:59;8.77;;;6.27;;
6143;SDS011;3103;49.492;8.474;2022-10-16T00:36:26;5.13;;;4.10;;
6143;SDS011;3103;49.492;8.474;2022-10-16T00:38:54;5.17;;;4.07;;
6143;SDS011;3103;49.492;8.474;2022-10-16T00:41:23;5.73;;;3.30;;
6143;SDS011;3103;49.492;8.474;2022-10-16T00:46:23;5.93;;;4.43;;
6143;SDS011;3103;49.492;8.474;2022-10-16T00:48:58;6.30;;;4.57;;
6143;SDS011;3103;49.492;8.474;2022-10-16T00:51:37;5.10;;;3.10;;
6143;SDS011;3103;49.492;8.474;2022-10-16T00:54:17;8.73;;;2.63;;
6143;SDS011;3103;49.492;8.474;2022-10-16T00:56:47;5.40;;;4.03;;
6143;SDS011;3103;49.492;8.474;2022-10-16T00:59:16;8.13;;;4.67;;
6143;SDS011;3103;49.492;8.474;2022-10-16T01:01:51;5.30;;;4.57;;
6143;SDS011;3103;49.492;8.474;2022-10-16T01:04:19;8.57;;;5.60;;
6143;SDS011;3103;49.492;8.474;2022-10-16T01:12:12;5.40;;;3.20;;
6143;SDS011;3103;49.492;8.474;2022-10-16T01:14:58;6.23;;;3.60;;
6143;SDS011;3103;49.492;8.474;2022-10-16T01:17:33;3.60;;;2.70;;
6143;SDS011;3103;49.492;8.474;2022-10-16T01:23:05;4.63;;;3.00;;
6143;SDS011;3103;49.492;8.474;2022-10-16T01:25:51;5.13;;;2.90;;
6143;SDS011;3103;49.492;8.474;2022-10-16T01:28:34;3.23;;;2.50;;
6143;SDS011;3103;49.492;8.474;2022-10-16T01:31:06;2.93;;;2.60;;
6143;SDS011;3103;49.492;8.474;2022-10-16T01:33:36;4.70;;;2.80;;
6143;SDS011;3103;49.492;8.474;2022-10-16T01:36:19;6.20;;;3.03;;
6143;SDS011;3103;49.492;8.474;2022-10-16T01:38:51;4.20;;;3.00;;
6143;SDS011;3103;49.492;8.474;2022-10-16T01:41:24;5.53;;;3.30;;
6143;SDS011;3103;49.492;8.474;2022-10-16T01:43:57;4.80;;;3.40;;
6143;SDS011;3103;49.492;8.474;2022-10-16T01:46:36;2.80;;;2.50;;
6143;SDS011;3103;49.492;8.474;2022-10-16T01:49:05;3.53;;;2.50;;
6143;SDS011;3103;49.492;8.474;2022-10-16T01:51:34;3.10;;;2.30;;
6143;SDS011;3103;49.492;8.474;2022-10-16T01:54:02;3.63;;;2.40;;
6143;SDS011;3103;49.492;8.474;2022-10-16T01:56:34;7.27;;;3.43;;
6143;SDS011;3103;49.492;8.474;2022-10-16T01:59:04;5.00;;;2.57;;
6143;SDS011;3103;49.492;8.474;2022-10-16T02:01:36;3.40;;;2.90;;
6143;SDS011;3103;49.492;8.474;2022-10-16T02:04:13;3.53;;;2.90;;
6143;SDS011;3103;49.492;8.474;2022-10-16T02:06:49;5.03;;;2.80;;
6143;SDS011;3103;49.492;8.474;2022-10-16T02:09:16;3.47;;;2.73;;
6143;SDS011;3103;49.492;8.474;2022-10-16T02:11:43;3.70;;;2.80;;
6143;SDS011;3103;49.492;8.474;2022-10-16T02:14:11;4.87;;;3.00;;
6143;SDS011;3103;49.492;8.474;2022-10-16T02:16:39;2.87;;;2.57;;
6143;SDS011;3103;49.492;8.474;2022-10-16T02:19:11;6.07;;;2.70;;
6143;SDS011;3103;49.492;8.474;2022-10-16T02:21:41;3.93;;;2.67;;
6143;SDS011;3103;49.492;8.474;2022-10-16T02:24:16;3.17;;;2.27;;
6143;SDS011;3103;49.492;8.474;2022-10-16T02:27:33;3.77;;;2.00;;
6143;SDS011;3103;49.492;8.474;2022-10-16T02:33:11;3.77;;;2.13;;
6143;SDS011;3103;49.492;8.474;2022-10-16T02:35:40;5.03;;;3.23;;
6143;SDS011;3103;49.492;8.474;2022-10-16T02:38:08;5.43;;;3.20;;
6143;SDS011;3103;49.492;8.474;2022-10-16T02:40:41;3.93;;;2.10;;
6143;SDS011;3103;49.492;8.474;2022-10-16T02:43:09;2.90;;;2.20;;
6143;SDS011;3103;49.492;8.474;2022-10-16T02:45:36;6.37;;;2.60;;
6143;SDS011;3103;49.492;8.474;2022-10-16T02:48:03;4.90;;;2.77;;
6143;SDS011;3103;49.492;8.474;2022-10-16T02:50:30;5.90;;;2.50;;
6143;SDS011;3103;49.492;8.474;2022-10-16T02:52:57;7.97;;;2.47;;
6143;SDS011;3103;49.492;8.474;2022-10-16T02:55:24;6.70;;;2.33;;
6143;SDS011;3103;49.492;8.474;2022-10-16T02:57:50;4.90;;;3.80;;
6143;SDS011;3103;49.492;8.474;2022-10-16T03:00:17;3.97;;;2.57;;
6143;SDS011;3103;49.492;8.474;2022-10-16T03:02:45;6.00;;;4.00;;
6143;SDS011;3103;49.492;8.474;2022-10-16T03:05:13;6.17;;;2.60;;
6143;SDS011;3103;49.492;8.474;2022-10-16T03:07:40;7.90;;;3.90;;
6143;SDS011;3103;49.492;8.474;2022-10-16T03:10:06;9.47;;;4.27;;
6143;SDS011;3103;49.492;8.474;2022-10-16T03:12:33;3.73;;;2.73;;
6143;SDS011;3103;49.492;8.474;2022-10-16T03:15:00;5.63;;;3.20;;
6143;SDS011;3103;49.492;8.474;2022-10-16T03:17:29;4.20;;;3.10;;
6143;SDS011;3103;49.492;8.474;2022-10-16T03:19:56;10.43;;;5.10;;
6143;SDS011;3103;49.492;8.474;2022-10-16T03:22:22;4.10;;;3.07;;
6143;SDS011;3103;49.492;8.474;2022-10-16T03:24:49;3.77;;;2.27;;
6143;SDS011;3103;49.492;8.474;2022-10-16T03:27:16;2.93;;;2.60;;
6143;SDS011;3103;49.492;8.474;2022-10-16T03:29:43;3.80;;;2.60;;
6143;SDS011;3103;49.492;8.474;2022-10-16T03:32:10;2.43;;;2.13;;
6143;SDS011;3103;49.492;8.474;2022-10-16T03:34:36;2.97;;;2.63;;
6143;SDS011;3103;49.492;8.474;2022-10-16T03:37:03;3.03;;;2.50;;
6143;SDS011;3103;49.492;8.474;2022-10-16T03:39:30;3.90;;;2.37;;
6143;SDS011;3103;49.492;8.474;2022-10-16T03:41:57;4.57;;;2.43;;
6143;SDS011;3103;49.492;8.474;2022-10-16T03:44:23;4.50;;;2.30;;
6143;SDS011;3103;49.492;8.474;2022-10-16T03:46:50;3.53;;;2.10;;
6143;SDS011;3103;49.492;8.474;2022-10-16T03:49:17;5.33;;;2.60;;
6143;SDS011;3103;49.492;8.474;2022-10-16T03:51:43;4.40;;;2.40;;
6143;SDS011;3103;49.492;8.474;2022-10-16T03:54:10;3.73;;;2.60;;
6143;SDS011;3103;49.492;8.474;2022-10-16T03:56:37;4.17;;;2.43;;
6143;SDS011;3103;49.492;8.474;2022-10-16T03:59:04;2.83;;;2.50;;
6143;SDS011;3103;49.492;8.474;2022-10-16T04:01:31;3.57;;;2.40;;
6143;SDS011;3103;49.492;8.474;2022-10-16T04:03:57;3.57;;;2.10;;
6143;SDS011;3103;49.492;8.474;2022-10-16T04:06:24;3.37;;;2.20;;
6143;SDS011;3103;49.492;8.474;2022-10-16T04:08:51;2.70;;;2.20;;
6143;SDS011;3103;49.492;8.474;2022-10-16T04:11:18;5.30;;;2.33;;
6143;SDS011;3103;49.492;8.474;2022-10-16T04:13:44;3.30;;;2.37;;
6143;SDS011;3103;49.492;8.474;2022-10-16T04:16:11;3.07;;;2.10;;
6143;SDS011;3103;49.492;8.474;2022-10-16T04:18:37;3.03;;;2.60;;
6143;SDS011;3103;49.492;8.474;2022-10-16T04:21:05;2.70;;;2.30;;
6143;SDS011;3103;49.492;8.474;2022-10-16T04:23:32;2.20;;;2.00;;
6143;SDS011;3103;49.492;8.474;2022-10-16T04:25:59;3.27;;;2.20;;
6143;SDS011;3103;49.492;8.474;2022-10-16T04:28:26;5.10;;;3.10;;
6143;SDS011;3103;49.492;8.474;2022-10-16T04:30:54;3.00;;;2.47;;
6143;SDS011;3103;49.492;8.474;2022-10-16T04:33:20;2.73;;;2.50;;
6143;SDS011;3103;49.492;8.474;2022-10-16T04:35:47;4.07;;;2.00;;
6143;SDS011;3103;49.492;8.474;2022-10-16T04:38:14;5.03;;;2.57;;
6143;SDS011;3103;49.492;8.474;2022-10-16T04:40:41;3.00;;;2.60;;
6143;SDS011;3103;49.492;8.474;2022-10-16T04:43:08;3.50;;;2.73;;
6143;SDS011;3103;49.492;8.474;2022-10-16T04:45:35;3.07;;;2.53;;
6143;SDS011;3103;49.492;8.474;2022-10-16T04:48:02;4.23;;;3.10;;
6143;SDS011;3103;49.492;8.474;2022-10-16T04:50:29;5.40;;;2.97;;
6143;SDS011;3103;49.492;8.474;2022-10-16T04:53:05;5.90;;;2.80;;
6143;SDS011;3103;49.492;8.474;2022-10-16T04:55:33;5.90;;;3.07;;
6143;SDS011;3103;49.492;8.474;2022-10-16T04:58:00;5.10;;;3.03;;
6143;SDS011;3103;49.492;8.474;2022-10-16T05:00:27;3.20;;;2.90;;
6143;SDS011;3103;49.492;8.474;2022-10-16T05:02:53;3.53;;;2.73;;
6143;SDS011;3103;49.492;8.474;2022-10-16T05:05:21;5.87;;;3.43;;
6143;SDS011;3103;49.492;8.474;2022-10-16T05:07:49;4.07;;;2.90;;
6143;SDS011;3103;49.492;8.474;2022-10-16T05:10:16;4.60;;;3.00;;
6143;SDS011;3103;49.492;8.474;2022-10-16T05:12:43;4.43;;;2.77;;
6143;SDS011;3103;49.492;8.474;2022-10-16T05:15:10;3.67;;;3.10;;
6143;SDS011;3103;49.492;8.474;2022-10-16T05:17:37;3.43;;;2.50;;
6143;SDS011;3103;49.492;8.474;2022-10-16T05:20:10;6.80;;;3.47;;
6143;SDS011;3103;49.492;8.474;2022-10-16T05:22:37;3.27;;;2.30;;
6143;SDS011;3103;49.492;8.474;2022-10-16T05:25:04;3.90;;;2.23;;
6143;SDS011;3103;49.492;8.474;2022-10-16T05:27:31;3.30;;;2.57;;
6143;SDS011;3103;49.492;8.474;2022-10-16T05:29:57;6.50;;;2.50;;
6143;SDS011;3103;49.492;8.474;2022-10-16T05:32:24;2.77;;;2.37;;
6143;SDS011;3103;49.492;8.474;2022-10-16T05:34:51;3.30;;;2.40;;
6143;SDS011;3103;49.492;8.474;2022-10-16T05:37:18;7.13;;;2.43;;
6143;SDS011;3103;49.492;8.474;2022-10-16T05:39:44;2.67;;;2.47;;
6143;SDS011;3103;49.492;8.474;2022-10-16T05:42:11;4.57;;;3.00;;
6143;SDS011;3103;49.492;8.474;2022-10-16T05:44:38;4.77;;;2.60;;
6143;SDS011;3103;49.492;8.474;2022-10-16T05:47:04;4.57;;;2.53;;
6143;SDS011;3103;49.492;8.474;2022-10-16T05:49:31;3.03;;;2.50;;
6143;SDS011;3103;49.492;8.474;2022-10-16T05:51:58;4.27;;;2.37;;
6143;SDS011;3103;49.492;8.474;2022-10-16T05:54:25;6.03;;;2.40;;
6143;SDS011;3103;49.492;8.474;2022-10-16T05:56:52;7.20;;;2.97;;
6143;SDS011;3103;49.492;8.474;2022-10-16T05:59:18;8.40;;;2.53;;
6143;SDS011;3103;49.492;8.474;2022-10-16T06:01:45;5.67;;;2.10;;
6143;SDS011;3103;49.492;8.474;2022-10-16T06:04:12;2.60;;;2.20;;
6143;SDS011;3103;49.492;8.474;2022-10-16T06:06:41;2.50;;;2.20;;
6143;SDS011;3103;49.492;8.474;2022-10-16T06:09:08;2.37;;;2.17;;
6143;SDS011;3103;49.492;8.474;2022-10-16T06:11:36;5.37;;;2.07;;
6143;SDS011;3103;49.492;8.474;2022-10-16T06:14:03;3.73;;;2.43;;
6143;SDS011;3103;49.492;8.474;2022-10-16T06:16:33;3.37;;;2.23;;
6143;SDS011;3103;49.492;8.474;2022-10-16T06:19:02;5.30;;;2.30;;
6143;SDS011;3103;49.492;8.474;2022-10-16T06:21:32;3.23;;;2.07;;
6143;SDS011;3103;49.492;8.474;2022-10-16T06:23:59;2.93;;;2.57;;
6143;SDS011;3103;49.492;8.474;2022-10-16T06:26:26;9.70;;;3.10;;
6143;SDS011;3103;49.492;8.474;2022-10-16T06:28:55;4.27;;;2.10;;
6143;SDS011;3103;49.492;8.474;2022-10-16T06:31:23;3.17;;;2.00;;
6143;SDS011;3103;49.492;8.474;2022-10-16T06:33:54;2.30;;;2.10;;
6143;SDS011;3103;49.492;8.474;2022-10-16T06:36:21;4.57;;;2.10;;
6143;SDS011;3103;49.492;8.474;2022-10-16T06:38:49;3.00;;;2.20;;
6143;SDS011;3103;49.492;8.474;2022-10-16T06:41:17;5.43;;;2.37;;
6143;SDS011;3103;49.492;8.474;2022-10-16T06:43:46;5.07;;;2.40;;
6143;SDS011;3103;49.492;8.474;2022-10-16T06:46:14;2.70;;;2.37;;
6143;SDS011;3103;49.492;8.474;2022-10-16T06:48:43;4.73;;;2.60;;
6143;SDS011;3103;49.492;8.474;2022-10-16T06:51:11;2.93;;;2.10;;
6143;SDS011;3103;49.492;8.474;2022-10-16T06:53:46;5.63;;;2.53;;
6143;SDS011;3103;49.492;8.474;2022-10-16T06:56:28;4.00;;;2.13;;
6143;SDS011;3103;49.492;8.474;2022-10-16T06:58:57;5.63;;;2.77;;
6143;SDS011;3103;49.492;8.474;2022-10-16T07:01:25;6.60;;;2.93;;
6143;SDS011;3103;49.492;8.474;2022-10-16T07:03:52;3.83;;;2.93;;
6143;SDS011;3103;49.492;8.474;2022-10-16T07:06:21;3.43;;;2.13;;
6143;SDS011;3103;49.492;8.474;2022-10-16T07:08:49;3.37;;;1.80;;
6143;SDS011;3103;49.492;8.474;2022-10-16T07:11:17;6.50;;;2.80;;
6143;SDS011;3103;49.492;8.474;2022-10-16T07:13:47;3.30;;;2.50;;
6143;SDS011;3103;49.492;8.474;2022-10-16T07:16:23;2.70;;;2.40;;
6143;SDS011;3103;49.492;8.474;2022-10-16T07:18:54;3.53;;;2.90;;
6143;SDS011;3103;49.492;8.474;2022-10-16T07:21:30;4.27;;;2.40;;
6143;SDS011;3103;49.492;8.474;2022-10-16T07:24:02;12.80;;;7.80;;
6143;SDS011;3103;49.492;8.474;2022-10-16T07:26:32;21.13;;;12.57;;
6143;SDS011;3103;49.492;8.474;2022-10-16T07:29:00;14.30;;;10.50;;
6143;SDS011;3103;49.492;8.474;2022-10-16T07:31:27;9.67;;;7.13;;
6143;SDS011;3103;49.492;8.474;2022-10-16T07:33:54;8.93;;;6.57;;
6143;SDS011;3103;49.492;8.474;2022-10-16T07:36:21;4.90;;;3.57;;
6143;SDS011;3103;49.492;8.474;2022-10-16T07:38:47;8.93;;;5.93;;
6143;SDS011;3103;49.492;8.474;2022-10-16T07:41:16;3.20;;;2.60;;
6143;SDS011;3103;49.492;8.474;2022-10-16T07:43:45;49.17;;;31.10;;
6143;SDS011;3103;49.492;8.474;2022-10-16T07:46:13;30.73;;;20.37;;
6143;SDS011;3103;49.492;8.474;2022-10-16T07:48:40;11.57;;;8.00;;
6143;SDS011;3103;49.492;8.474;2022-10-16T07:51:11;11.83;;;9.10;;
6143;SDS011;3103;49.492;8.474;2022-10-16T07:53:38;11.70;;;5.90;;
6143;SDS011;3103;49.492;8.474;2022-10-16T07:56:06;9.63;;;4.20;;
6143;SDS011;3103;49.492;8.474;2022-10-16T07:58:34;5.00;;;3.17;;
6143;SDS011;3103;49.492;8.474;2022-10-16T08:01:04;10.47;;;6.07;;
6143;SDS011;3103;49.492;8.474;2022-10-16T08:03:33;7.43;;;4.50;;
6143;SDS011;3103;49.492;8.474;2022-10-16T08:06:00;10.50;;;7.40;;
6143;SDS011;3103;49.492;8.474;2022-10-16T08:08:28;8.03;;;4.73;;
6143;SDS011;3103;49.492;8.474;2022-10-16T08:10:55;7.57;;;4.73;;
6143;SDS011;3103;49.492;8.474;2022-10-16T08:13:25;3.33;;;3.00;;
6143;SDS011;3103;49.492;8.474;2022-10-16T08:15:53;8.33;;;4.03;;
6143;SDS011;3103;49.492;8.474;2022-10-16T08:18:20;10.20;;;5.20;;
6143;SDS011;3103;49.492;8.474;2022-10-16T08:20:47;4.50;;;2.90;;
6143;SDS011;3103;49.492;8.474;2022-10-16T08:23:13;6.77;;;2.90;;
6143;SDS011;3103;49.492;8.474;2022-10-16T08:25:40;5.13;;;2.90;;
6143;SDS011;3103;49.492;8.474;2022-10-16T08:28:09;5.40;;;3.00;;
6143;SDS011;3103;49.492;8.474;2022-10-16T08:30:36;6.07;;;3.07;;
6143;SDS011;3103;49.492;8.474;2022-10-16T08:33:03;6.77;;;3.40;;
6143;SDS011;3103;49.492;8.474;2022-10-16T08:35:31;7.30;;;3.30;;
6143;SDS011;3103;49.492;8.474;2022-10-16T08:37:57;6.00;;;3.80;;
6143;SDS011;3103;49.492;8.474;2022-10-16T08:40:25;5.73;;;3.20;;
6143;SDS011;3103;49.492;8.474;2022-10-16T08:49:03;4.83;;;2.90;;
6143;SDS011;3103;49.492;8.474;2022-10-16T08:51:35;11.10;;;3.30;;
6143;SDS011;3103;49.492;8.474;2022-10-16T08:57:07;14.07;;;7.03;;
6143;SDS011;3103;49.492;8.474;2022-10-16T08:59:36;46.27;;;31.50;;
6143;SDS011;3103;49.492;8.474;2022-10-16T09:02:03;30.73;;;21.03;;
6143;SDS011;3103;49.492;8.474;2022-10-16T09:04:51;9.40;;;5.57;;
6143;SDS011;3103;49.492;8.474;2022-10-16T09:12:58;39.17;;;28.80;;
6143;SDS011;3103;49.492;8.474;2022-10-16T09:15:55;12.63;;;8.53;;
6143;SDS011;3103;49.492;8.474;2022-10-16T09:18:41;16.20;;;10.33;;
6143;SDS011;3103;49.492;8.474;2022-10-16T09:21:21;49.43;;;34.17;;
6143;SDS011;3103;49.492;8.474;2022-10-16T09:23:51;50.23;;;33.70;;
6143;SDS011;3103;49.492;8.474;2022-10-16T09:26:18;35.33;;;25.10;;
6143;SDS011;3103;49.492;8.474;2022-10-16T09:28:51;9.67;;;6.80;;
6143;SDS011;3103;49.492;8.474;2022-10-16T09:31:19;12.27;;;9.10;;
6143;SDS011;3103;49.492;8.474;2022-10-16T09:33:50;11.73;;;7.07;;
6143;SDS011;3103;49.492;8.474;2022-10-16T09:36:21;14.73;;;8.83;;
6143;SDS011;3103;49.492;8.474;2022-10-16T09:39:01;8.53;;;6.13;;
6143;SDS011;3103;49.492;8.474;2022-10-16T09:41:33;11.83;;;7.37;;
6143;SDS011;3103;49.492;8.474;2022-10-16T09:44:02;10.17;;;5.60;;
6143;SDS011;3103;49.492;8.474;2022-10-16T09:46:34;10.27;;;5.23;;
6143;SDS011;3103;49.492;8.474;2022-10-16T09:49:03;7.17;;;4.70;;
6143;SDS011;3103;49.492;8.474;2022-10-16T09:51:51;8.20;;;3.60;;
6143;SDS011;3103;49.492;8.474;2022-10-16T09:54:28;8.60;;;3.67;;
6143;SDS011;3103;49.492;8.474;2022-10-16T09:57:03;9.50;;;4.70;;
6143;SDS011;3103;49.492;8.474;2022-10-16T09:59:32;4.83;;;3.67;;
6143;SDS011;3103;49.492;8.474;2022-10-16T10:02:03;4.60;;;3.27;;
6143;SDS011;3103;49.492;8.474;2022-10-16T10:04:41;4.77;;;2.97;;
6143;SDS011;3103;49.492;8.474;2022-10-16T10:07:18;5.73;;;3.83;;
6143;SDS011;3103;49.492;8.474;2022-10-16T10:09:50;3.70;;;3.30;;
6143;SDS011;3103;49.492;8.474;2022-10-16T10:12:21;6.30;;;4.17;;
6143;SDS011;3103;49.492;8.474;2022-10-16T10:14:53;4.63;;;3.33;;
6143;SDS011;3103;49.492;8.474;2022-10-16T10:17:28;6.07;;;3.63;;
6143;SDS011;3103;49.492;8.474;2022-10-16T10:19:59;3.43;;;2.43;;
6143;SDS011;3103;49.492;8.474;2022-10-16T10:22:47;3.13;;;2.60;;
6143;SDS011;3103;49.492;8.474;2022-10-16T10:31:05;3.80;;;2.70;;
6143;SDS011;3103;49.492;8.474;2022-10-16T10:33:48;3.83;;;2.50;;
6143;SDS011;3103;49.492;8.474;2022-10-16T10:36:37;4.83;;;3.03;;
6143;SDS011;3103;49.492;8.474;2022-10-16T10:39:09;4.67;;;3.80;;
6143;SDS011;3103;49.492;8.474;2022-10-16T10:44:57;4.00;;;3.07;;
6143;SDS011;3103;49.492;8.474;2022-10-16T10:53:34;4.67;;;2.40;;
6143;SDS011;3103;49.492;8.474;2022-10-16T11:01:42;2.80;;;2.50;;
6143;SDS011;3103;49.492;8.474;2022-10-16T11:05:12;4.80;;;3.67;;
6143;SDS011;3103;49.492;8.474;2022-10-16T11:07:47;4.83;;;2.63;;
6143;SDS011;3103;49.492;8.474;2022-10-16T11:10:20;3.80;;;3.20;;
6143;SDS011;3103;49.492;8.474;2022-10-16T11:13:33;3.43;;;2.80;;
6143;SDS011;3103;49.492;8.474;2022-10-16T11:15:48;4.47;;;2.73;;
6143;SDS011;3103;49.492;8.474;2022-10-16T11:18:42;14.97;;;7.70;;
6143;SDS011;3103;49.492;8.474;2022-10-16T11:21:13;32.53;;;21.47;;
6143;SDS011;3103;49.492;8.474;2022-10-16T11:23:53;9.40;;;5.70;;
6143;SDS011;3103;49.492;8.474;2022-10-16T11:26:27;29.50;;;18.03;;
6143;SDS011;3103;49.492;8.474;2022-10-16T11:28:59;73.90;;;43.90;;
6143;SDS011;3103;49.492;8.474;2022-10-16T11:31:36;36.57;;;21.57;;
6143;SDS011;3103;49.492;8.474;2022-10-16T11:36:53;11.43;;;8.13;;
6143;SDS011;3103;49.492;8.474;2022-10-16T11:39:28;27.43;;;18.67;;
6143;SDS011;3103;49.492;8.474;2022-10-16T11:42:01;7.07;;;4.23;;
6143;SDS011;3103;49.492;8.474;2022-10-16T11:47:45;5.03;;;3.77;;
6143;SDS011;3103;49.492;8.474;2022-10-16T11:53:07;3.13;;;2.30;;
6143;SDS011;3103;49.492;8.474;2022-10-16T11:55:50;7.70;;;3.00;;
6143;SDS011;3103;49.492;8.474;2022-10-16T12:03:47;3.63;;;2.70;;
6143;SDS011;3103;49.492;8.474;2022-10-16T12:06:25;3.53;;;2.47;;
6143;SDS011;3103;49.492;8.474;2022-10-16T12:08:59;5.43;;;2.90;;
6143;SDS011;3103;49.492;8.474;2022-10-16T12:14:04;4.67;;;2.40;;
6143;SDS011;3103;49.492;8.474;2022-10-16T12:16:32;4.53;;;2.70;;
6143;SDS011;3103;49.492;8.474;2022-10-16T12:19:18;5.13;;;3.27;;
6143;SDS011;3103;49.492;8.474;2022-10-16T12:21:46;5.53;;;3.13;;
6143;SDS011;3103;49.492;8.474;2022-10-16T12:26:54;4.87;;;2.87;;
6143;SDS011;3103;49.492;8.474;2022-10-16T12:35:18;7.30;;;3.07;;
6143;SDS011;3103;49.492;8.474;2022-10-16T12:37:47;5.87;;;2.77;;
6143;SDS011;3103;49.492;8.474;2022-10-16T12:40:25;18.40;;;13.30;;
6143;SDS011;3103;49.492;8.474;2022-10-16T12:42:56;28.73;;;21.00;;
6143;SDS011;3103;49.492;8.474;2022-10-16T12:45:30;25.47;;;17.17;;
6143;SDS011;3103;49.492;8.474;2022-10-16T12:47:59;10.63;;;8.23;;
6143;SDS011;3103;49.492;8.474;2022-10-16T12:50:29;42.83;;;30.50;;
6143;SDS011;3103;49.492;8.474;2022-10-16T12:53:01;36.87;;;26.33;;
6143;SDS011;3103;49.492;8.474;2022-10-16T12:55:44;8.30;;;6.50;;
6143;SDS011;3103;49.492;8.474;2022-10-16T12:58:30;10.33;;;6.63;;
6143;SDS011;3103;49.492;8.474;2022-10-16T13:04:06;10.30;;;7.40;;
6143;SDS011;3103;49.492;8.474;2022-10-16T13:09:33;25.20;;;17.10;;
6143;SDS011;3103;49.492;8.474;2022-10-16T13:18:43;6.80;;;5.10;;
6143;SDS011;3103;49.492;8.474;2022-10-16T13:21:46;4.20;;;3.80;;
6143;SDS011;3103;49.492;8.474;2022-10-16T13:24:31;5.30;;;3.77;;
6143;SDS011;3103;49.492;8.474;2022-10-16T13:27:26;6.67;;;3.70;;
6143;SDS011;3103;49.492;8.474;2022-10-16T13:30:24;6.97;;;3.47;;
6143;SDS011;3103;49.492;8.474;2022-10-16T13:33:04;5.57;;;2.83;;
6143;SDS011;3103;49.492;8.474;2022-10-16T13:35:51;5.60;;;3.60;;
6143;SDS011;3103;49.492;8.474;2022-10-16T13:38:21;4.73;;;2.77;;
6143;SDS011;3103;49.492;8.474;2022-10-16T13:40:51;4.17;;;2.57;;
6143;SDS011;3103;49.492;8.474;2022-10-16T13:43:18;2.70;;;2.23;;
6143;SDS011;3103;49.492;8.474;2022-10-16T13:45:55;3.03;;;2.50;;
6143;SDS011;3103;49.492;8.474;2022-10-16T13:48:26;5.13;;;3.00;;
6143;SDS011;3103;49.492;8.474;2022-10-16T13:53:29;4.90;;;2.50;;
6143;SDS011;3103;49.492;8.474;2022-10-16T13:55:57;3.70;;;2.60;;
6143;SDS011;3103;49.492;8.474;2022-10-16T13:58:26;3.13;;;2.83;;
6143;SDS011;3103;49.492;8.474;2022-10-16T14:00:54;4.93;;;2.90;;
6143;SDS011;3103;49.492;8.474;2022-10-16T14:03:22;3.20;;;2.50;;
6143;SDS011;3103;49.492;8.474;2022-10-16T14:05:54;3.23;;;2.30;;
6143;SDS011;3103;49.492;8.474;2022-10-16T14:08:24;5.57;;;2.77;;
6143;SDS011;3103;49.492;8.474;2022-10-16T14:10:54;3.77;;;2.80;;
6143;SDS011;3103;49.492;8.474;2022-10-16T14:13:34;4.07;;;3.27;;
6143;SDS011;3103;49.492;8.474;2022-10-16T14:16:09;3.60;;;3.30;;
6143;SDS011;3103;49.492;8.474;2022-10-16T14:18:37;15.93;;;12.77;;
6143;SDS011;3103;49.492;8.474;2022-10-16T14:21:06;11.03;;;7.83;;
6143;SDS011;3103;49.492;8.474;2022-10-16T14:23:38;11.83;;;8.77;;
6143;SDS011;3103;49.492;8.474;2022-10-16T14:26:12;16.00;;;11.40;;
6143;SDS011;3103;49.492;8.474;2022-10-16T14:28:40;9.30;;;4.90;;
6143;SDS011;3103;49.492;8.474;2022-10-16T14:31:27;8.23;;;5.90;;
6143;SDS011;3103;49.492;8.474;2022-10-16T14:33:56;7.80;;;5.10;;
6143;SDS011;3103;49.492;8.474;2022-10-16T14:36:23;12.57;;;6.87;;
6143;SDS011;3103;49.492;8.474;2022-10-16T14:38:54;11.43;;;6.30;;
6143;SDS011;3103;49.492;8.474;2022-10-16T14:41:25;29.57;;;20.03;;
6143;SDS011;3103;49.492;8.474;2022-10-16T14:43:56;7.17;;;5.67;;
6143;SDS011;3103;49.492;8.474;2022-10-16T14:46:31;6.70;;;4.27;;
6143;SDS011;3103;49.492;8.474;2022-10-16T14:51:35;6.13;;;3.83;;
6143;SDS011;3103;49.492;8.474;2022-10-16T14:54:03;8.73;;;5.83;;
6143;SDS011;3103;49.492;8.474;2022-10-16T14:56:35;11.40;;;8.20;;
6143;SDS011;3103;49.492;8.474;2022-10-16T14:59:09;12.63;;;8.10;;
6143;SDS011;3103;49.492;8.474;2022-10-16T15:01:43;23.23;;;15.60;;
6143;SDS011;3103;49.492;8.474;2022-10-16T15:04:11;22.27;;;15.77;;
6143;SDS011;3103;49.492;8.474;2022-10-16T15:06:39;36.83;;;24.70;;
6143;SDS011;3103;49.492;8.474;2022-10-16T15:09:05;16.07;;;12.27;;
6143;SDS011;3103;49.492;8.474;2022-10-16T15:11:32;10.37;;;7.70;;
6143;SDS011;3103;49.492;8.474;2022-10-16T15:13:59;9.50;;;5.97;;
6143;SDS011;3103;49.492;8.474;2022-10-16T15:16:26;10.83;;;6.90;;
6143;SDS011;3103;49.492;8.474;2022-10-16T15:18:52;15.33;;;9.63;;
6143;SDS011;3103;49.492;8.474;2022-10-16T15:21:27;8.77;;;5.23;;
6143;SDS011;3103;49.492;8.474;2022-10-16T15:23:55;4.93;;;3.93;;
6143;SDS011;3103;49.492;8.474;2022-10-16T15:26:24;9.77;;;6.63;;
6143;SDS011;3103;49.492;8.474;2022-10-16T15:28:51;5.17;;;3.63;;
6143;SDS011;3103;49.492;8.474;2022-10-16T15:31:18;11.20;;;6.27;;
6143;SDS011;3103;49.492;8.474;2022-10-16T15:33:46;11.77;;;8.67;;
6143;SDS011;3103;49.492;8.474;2022-10-16T15:36:26;9.30;;;5.57;;
6143;SDS011;3103;49.492;8.474;2022-10-16T15:38:54;9.80;;;6.90;;
6143;SDS011;3103;49.492;8.474;2022-10-16T15:41:21;23.73;;;13.30;;
6143;SDS011;3103;49.492;8.474;2022-10-16T15:43:49;11.37;;;7.50;;
6143;SDS011;3103;49.492;8.474;2022-10-16T15:46:19;25.17;;;16.30;;
6143;SDS011;3103;49.492;8.474;2022-10-16T15:48:48;16.50;;;11.90;;
6143;SDS011;3103;49.492;8.474;2022-10-16T15:51:16;12.47;;;9.10;;
6143;SDS011;3103;49.492;8.474;2022-10-16T15:53:43;13.50;;;10.00;;
6143;SDS011;3103;49.492;8.474;2022-10-16T15:56:12;29.53;;;19.73;;
6143;SDS011;3103;49.492;8.474;2022-10-16T15:58:41;21.83;;;15.20;;
6143;SDS011;3103;49.492;8.474;2022-10-16T16:01:09;14.67;;;9.73;;
6143;SDS011;3103;49.492;8.474;2022-10-16T16:03:37;5.63;;;3.70;;
6143;SDS011;3103;49.492;8.474;2022-10-16T16:06:07;15.60;;;10.17;;
6143;SDS011;3103;49.492;8.474;2022-10-16T16:08:36;55.80;;;38.87;;
6143;SDS011;3103;49.492;8.474;2022-10-16T16:11:05;33.03;;;23.63;;
6143;SDS011;3103;49.492;8.474;2022-10-16T16:13:36;30.17;;;20.27;;
6143;SDS011;3103;49.492;8.474;2022-10-16T16:16:11;17.07;;;11.90;;
6143;SDS011;3103;49.492;8.474;2022-10-16T16:18:40;23.40;;;13.43;;
6143;SDS011;3103;49.492;8.474;2022-10-16T16:21:09;10.47;;;7.63;;
6143;SDS011;3103;49.492;8.474;2022-10-16T16:23:37;18.20;;;9.93;;
6143;SDS011;3103;49.492;8.474;2022-10-16T16:26:11;14.73;;;8.80;;
6143;SDS011;3103;49.492;8.474;2022-10-16T16:28:40;13.00;;;8.13;;
6143;SDS011;3103;49.492;8.474;2022-10-16T16:31:08;15.33;;;8.30;;
6143;SDS011;3103;49.492;8.474;2022-10-16T16:33:35;16.67;;;7.90;;
6143;SDS011;3103;49.492;8.474;2022-10-16T16:36:03;12.63;;;7.50;;
6143;SDS011;3103;49.492;8.474;2022-10-16T16:38:38;9.73;;;6.40;;
6143;SDS011;3103;49.492;8.474;2022-10-16T16:41:11;9.30;;;5.10;;
6143;SDS011;3103;49.492;8.474;2022-10-16T16:43:39;9.03;;;6.17;;
6143;SDS011;3103;49.492;8.474;2022-10-16T16:46:06;5.70;;;4.23;;
6143;SDS011;3103;49.492;8.474;2022-10-16T16:48:33;6.60;;;4.30;;
6143;SDS011;3103;49.492;8.474;2022-10-16T16:51:04;8.13;;;4.30;;
6143;SDS011;3103;49.492;8.474;2022-10-16T16:53:32;8.43;;;5.23;;
6143;SDS011;3103;49.492;8.474;2022-10-16T16:56:04;6.27;;;5.00;;
6143;SDS011;3103;49.492;8.474;2022-10-16T16:58:32;7.07;;;5.17;;
6143;SDS011;3103;49.492;8.474;2022-10-16T17:01:00;9.67;;;4.87;;
6143;SDS011;3103;49.492;8.474;2022-10-16T17:03:49;10.00;;;5.20;;
6143;SDS011;3103;49.492;8.474;2022-10-16T17:06:19;8.23;;;4.10;;